sensor_id;sensor_type;location;lat;lon;timestamp;temperature;humidity
11840;DHT22;5979;50.800;4.904;2023-09-18T00:00:40;19.90;99.90
11840;DHT22;5979;50.800;4.904;2023-09-18T00:03:08;19.90;99.90
11840;DHT22;5979;50.800;4.904;2023-09-18T00:05:34;19.90;99.90
11840;DHT22;5979;50.800;4.904;2023-09-18T00:08:00;19.90;99.90
11840;DHT22;5979;50.800;4.904;2023-09-18T00:10:28;19.90;99.90
11840;DHT22;5979;50.800;4.904;2023-09-18T00:12:57;19.90;99.90
11840;DHT22;5979;50.800;4.904;2023-09-18T00:15:23;19.90;99.90
11840;DHT22;5979;50.800;4.904;2023-09-18T00:17:49;20.00;99.90
11840;DHT22;5979;50.800;4.904;2023-09-18T00:20:15;19.90;99.90
11840;DHT22;5979;50.800;4.904;2023-09-18T00:22:43;19.90;99.90
11840;DHT22;5979;50.800;4.904;2023-09-18T00:25:10;19.90;99.90
11840;DHT22;5979;50.800;4.904;2023-09-18T00:27:35;19.90;99.90
11840;DHT22;5979;50.800;4.904;2023-09-18T00:30:04;19.90;99.90
11840;DHT22;5979;50.800;4.904;2023-09-18T00:32:30;19.90;99.90
11840;DHT22;5979;50.800;4.904;2023-09-18T00:34:56;19.90;99.90
11840;DHT22;5979;50.800;4.904;2023-09-18T00:37:21;19.90;99.90
11840;DHT22;5979;50.800;4.904;2023-09-18T00:39:47;19.90;99.90
11840;DHT22;5979;50.800;4.904;2023-09-18T00:42:14;19.80;99.90
11840;DHT22;5979;50.800;4.904;2023-09-18T00:44:41;19.80;99.90
11840;DHT22;5979;50.800;4.904;2023-09-18T00:47:10;19.80;99.90
11840;DHT22;5979;50.800;4.904;2023-09-18T00:49:38;19.80;99.90
11840;DHT22;5979;50.800;4.904;2023-09-18T00:52:06;19.80;99.90
11840;DHT22;5979;50.800;4.904;2023-09-18T00:54:33;19.80;99.90
11840;DHT22;5979;50.800;4.904;2023-09-18T00:57:00;19.70;99.90
11840;DHT22;5979;50.800;4.904;2023-09-18T00:59:25;19.70;99.90
11840;DHT22;5979;50.800;4.904;2023-09-18T01:01:52;19.70;99.90
11840;DHT22;5979;50.800;4.904;2023-09-18T01:04:18;19.60;99.90
11840;DHT22;5979;50.800;4.904;2023-09-18T01:06:44;19.60;99.90
11840;DHT22;5979;50.800;4.904;2023-09-18T01:09:10;19.60;99.90
11840;DHT22;5979;50.800;4.904;2023-09-18T01:12:05;19.60;99.90
11840;DHT22;5979;50.800;4.904;2023-09-18T01:17:21;19.70;99.90
11840;DHT22;5979;50.800;4.904;2023-09-18T01:19:48;19.80;99.90
11840;DHT22;5979;50.800;4.904;2023-09-18T01:22:18;19.80;99.90
11840;DHT22;5979;50.800;4.904;2023-09-18T01:24:46;19.90;99.90
11840;DHT22;5979;50.800;4.904;2023-09-18T01:27:18;20.00;99.90
11840;DHT22;5979;50.800;4.904;2023-09-18T01:29:47;20.10;99.90
11840;DHT22;5979;50.800;4.904;2023-09-18T01:32:14;20.20;99.90
11840;DHT22;5979;50.800;4.904;2023-09-18T01:34:50;20.20;99.90
11840;DHT22;5979;50.800;4.904;2023-09-18T01:37:26;20.30;99.90
11840;DHT22;5979;50.800;4.904;2023-09-18T01:39:53;20.30;99.90
11840;DHT22;5979;50.800;4.904;2023-09-18T01:42:20;20.40;99.90
11840;DHT22;5979;50.800;4.904;2023-09-18T01:44:47;20.40;99.90
11840;DHT22;5979;50.800;4.904;2023-09-18T01:47:16;20.40;99.90
11840;DHT22;5979;50.800;4.904;2023-09-18T01:49:43;20.40;99.90
11840;DHT22;5979;50.800;4.904;2023-09-18T01:52:09;20.40;99.90
11840;DHT22;5979;50.800;4.904;2023-09-18T01:54:35;20.40;99.90
11840;DHT22;5979;50.800;4.904;2023-09-18T01:57:01;20.40;99.90
11840;DHT22;5979;50.800;4.904;2023-09-18T01:59:28;20.30;99.90
11840;DHT22;5979;50.800;4.904;2023-09-18T02:01:53;20.30;99.90
11840;DHT22;5979;50.800;4.904;2023-09-18T02:04:20;20.30;99.90
11840;DHT22;5979;50.800;4.904;2023-09-18T02:06:47;20.30;99.90
11840;DHT22;5979;50.800;4.904;2023-09-18T02:09:13;20.30;99.90
11840;DHT22;5979;50.800;4.904;2023-09-18T02:11:41;20.30;99.90
11840;DHT22;5979;50.800;4.904;2023-09-18T02:14:08;20.30;99.90
11840;DHT22;5979;50.800;4.904;2023-09-18T02:16:35;20.30;99.90
11840;DHT22;5979;50.800;4.904;2023-09-18T02:19:02;20.30;99.90
11840;DHT22;5979;50.800;4.904;2023-09-18T02:21:29;20.30;99.90
11840;DHT22;5979;50.800;4.904;2023-09-18T02:23:54;20.30;99.90
11840;DHT22;5979;50.800;4.904;2023-09-18T02:26:21;20.30;99.90
11840;DHT22;5979;50.800;4.904;2023-09-18T02:28:47;20.30;99.90
11840;DHT22;5979;50.800;4.904;2023-09-18T02:31:13;20.30;99.90
11840;DHT22;5979;50.800;4.904;2023-09-18T02:33:39;20.30;99.90
11840;DHT22;5979;50.800;4.904;2023-09-18T02:36:05;20.30;99.90
11840;DHT22;5979;50.800;4.904;2023-09-18T02:38:33;20.30;99.90
11840;DHT22;5979;50.800;4.904;2023-09-18T02:40:59;20.20;99.90
11840;DHT22;5979;50.800;4.904;2023-09-18T02:43:25;20.30;99.90
11840;DHT22;5979;50.800;4.904;2023-09-18T02:45:51;20.30;99.90
11840;DHT22;5979;50.800;4.904;2023-09-18T02:48:17;20.30;99.90
11840;DHT22;5979;50.800;4.904;2023-09-18T02:50:43;20.30;99.90
11840;DHT22;5979;50.800;4.904;2023-09-18T02:53:20;20.20;99.90
11840;DHT22;5979;50.800;4.904;2023-09-18T02:55:51;20.20;99.90
11840;DHT22;5979;50.800;4.904;2023-09-18T02:58:17;20.20;99.90
11840;DHT22;5979;50.800;4.904;2023-09-18T03:00:45;20.20;99.90
11840;DHT22;5979;50.800;4.904;2023-09-18T03:03:12;20.10;99.90
11840;DHT22;5979;50.800;4.904;2023-09-18T03:05:39;20.10;99.90
11840;DHT22;5979;50.800;4.904;2023-09-18T03:08:05;20.10;99.90
11840;DHT22;5979;50.800;4.904;2023-09-18T03:10:49;20.00;99.90
11840;DHT22;5979;50.800;4.904;2023-09-18T03:13:15;20.00;99.90
11840;DHT22;5979;50.800;4.904;2023-09-18T03:15:44;20.00;99.90
11840;DHT22;5979;50.800;4.904;2023-09-18T03:18:11;19.90;99.90
11840;DHT22;5979;50.800;4.904;2023-09-18T03:20:36;19.80;99.90
11840;DHT22;5979;50.800;4.904;2023-09-18T03:23:02;19.80;99.90
11840;DHT22;5979;50.800;4.904;2023-09-18T03:25:28;19.80;99.90
11840;DHT22;5979;50.800;4.904;2023-09-18T03:27:55;19.70;99.90
11840;DHT22;5979;50.800;4.904;2023-09-18T03:30:22;19.80;99.90
11840;DHT22;5979;50.800;4.904;2023-09-18T03:32:49;19.80;99.90
11840;DHT22;5979;50.800;4.904;2023-09-18T03:35:15;19.80;99.90
11840;DHT22;5979;50.800;4.904;2023-09-18T03:37:50;19.70;99.90
11840;DHT22;5979;50.800;4.904;2023-09-18T03:40:17;19.70;99.90
11840;DHT22;5979;50.800;4.904;2023-09-18T03:42:43;19.70;99.90
11840;DHT22;5979;50.800;4.904;2023-09-18T03:45:10;19.70;99.90
11840;DHT22;5979;50.800;4.904;2023-09-18T03:47:36;19.70;99.90
11840;DHT22;5979;50.800;4.904;2023-09-18T03:50:03;19.60;99.90
11840;DHT22;5979;50.800;4.904;2023-09-18T03:52:29;19.60;99.90
11840;DHT22;5979;50.800;4.904;2023-09-18T03:54:54;19.60;99.90
11840;DHT22;5979;50.800;4.904;2023-09-18T03:57:20;19.60;99.90
11840;DHT22;5979;50.800;4.904;2023-09-18T03:59:46;19.60;99.90
11840;DHT22;5979;50.800;4.904;2023-09-18T04:02:11;19.60;99.90
11840;DHT22;5979;50.800;4.904;2023-09-18T04:04:37;19.60;99.90
11840;DHT22;5979;50.800;4.904;2023-09-18T04:07:05;19.70;99.90
11840;DHT22;5979;50.800;4.904;2023-09-18T04:09:32;19.70;99.90
11840;DHT22;5979;50.800;4.904;2023-09-18T04:11:58;19.60;99.90
11840;DHT22;5979;50.800;4.904;2023-09-18T04:14:23;19.70;99.90
11840;DHT22;5979;50.800;4.904;2023-09-18T04:16:50;19.60;99.90
11840;DHT22;5979;50.800;4.904;2023-09-18T04:19:15;19.60;99.90
11840;DHT22;5979;50.800;4.904;2023-09-18T04:21:41;19.60;99.90
11840;DHT22;5979;50.800;4.904;2023-09-18T04:24:07;19.60;99.90
11840;DHT22;5979;50.800;4.904;2023-09-18T04:26:32;19.60;99.90
11840;DHT22;5979;50.800;4.904;2023-09-18T04:29:00;19.50;99.90
11840;DHT22;5979;50.800;4.904;2023-09-18T04:31:26;19.60;99.90
11840;DHT22;5979;50.800;4.904;2023-09-18T04:33:53;19.50;99.90
11840;DHT22;5979;50.800;4.904;2023-09-18T04:36:19;19.50;99.90
11840;DHT22;5979;50.800;4.904;2023-09-18T04:38:44;19.50;99.90
11840;DHT22;5979;50.800;4.904;2023-09-18T04:41:10;19.50;99.90
11840;DHT22;5979;50.800;4.904;2023-09-18T04:43:37;19.50;99.90
11840;DHT22;5979;50.800;4.904;2023-09-18T04:46:06;19.50;99.90
11840;DHT22;5979;50.800;4.904;2023-09-18T04:48:32;19.50;99.90
11840;DHT22;5979;50.800;4.904;2023-09-18T04:50:59;19.50;99.90
11840;DHT22;5979;50.800;4.904;2023-09-18T04:53:25;19.40;99.90
11840;DHT22;5979;50.800;4.904;2023-09-18T04:55:51;19.40;99.90
11840;DHT22;5979;50.800;4.904;2023-09-18T04:58:17;19.40;99.90
11840;DHT22;5979;50.800;4.904;2023-09-18T05:00:43;19.40;99.90
11840;DHT22;5979;50.800;4.904;2023-09-18T05:03:10;19.40;99.90
11840;DHT22;5979;50.800;4.904;2023-09-18T05:05:36;19.30;99.90
11840;DHT22;5979;50.800;4.904;2023-09-18T05:08:04;19.30;99.90
11840;DHT22;5979;50.800;4.904;2023-09-18T05:10:33;19.30;99.90
11840;DHT22;5979;50.800;4.904;2023-09-18T05:12:59;19.30;99.90
11840;DHT22;5979;50.800;4.904;2023-09-18T05:15:25;19.20;99.90
11840;DHT22;5979;50.800;4.904;2023-09-18T05:17:52;19.20;99.90
11840;DHT22;5979;50.800;4.904;2023-09-18T05:20:23;19.20;99.90
11840;DHT22;5979;50.800;4.904;2023-09-18T05:22:53;19.20;99.90
11840;DHT22;5979;50.800;4.904;2023-09-18T05:25:19;19.20;99.90
11840;DHT22;5979;50.800;4.904;2023-09-18T05:27:47;19.10;99.90
11840;DHT22;5979;50.800;4.904;2023-09-18T05:30:19;19.10;99.90
11840;DHT22;5979;50.800;4.904;2023-09-18T05:32:47;19.10;99.90
11840;DHT22;5979;50.800;4.904;2023-09-18T05:35:14;19.20;99.90
11840;DHT22;5979;50.800;4.904;2023-09-18T05:37:41;19.20;99.90
11840;DHT22;5979;50.800;4.904;2023-09-18T05:40:09;19.10;99.90
11840;DHT22;5979;50.800;4.904;2023-09-18T05:42:40;19.10;99.90
11840;DHT22;5979;50.800;4.904;2023-09-18T05:45:09;19.10;99.90
11840;DHT22;5979;50.800;4.904;2023-09-18T05:47:35;19.10;99.90
11840;DHT22;5979;50.800;4.904;2023-09-18T05:50:02;19.10;99.90
11840;DHT22;5979;50.800;4.904;2023-09-18T05:52:30;19.10;99.90
11840;DHT22;5979;50.800;4.904;2023-09-18T05:54:55;19.10;99.90
11840;DHT22;5979;50.800;4.904;2023-09-18T05:57:21;19.10;99.90
11840;DHT22;5979;50.800;4.904;2023-09-18T05:59:47;19.10;99.90
11840;DHT22;5979;50.800;4.904;2023-09-18T06:02:13;19.10;99.90
11840;DHT22;5979;50.800;4.904;2023-09-18T06:04:39;19.10;99.90
11840;DHT22;5979;50.800;4.904;2023-09-18T06:07:04;19.10;99.90
11840;DHT22;5979;50.800;4.904;2023-09-18T06:09:30;19.10;99.90
11840;DHT22;5979;50.800;4.904;2023-09-18T06:11:56;19.10;99.90
11840;DHT22;5979;50.800;4.904;2023-09-18T06:14:22;19.10;99.90
11840;DHT22;5979;50.800;4.904;2023-09-18T06:16:48;19.20;99.90
11840;DHT22;5979;50.800;4.904;2023-09-18T06:19:15;19.10;99.90
11840;DHT22;5979;50.800;4.904;2023-09-18T06:21:43;19.20;99.90
11840;DHT22;5979;50.800;4.904;2023-09-18T06:24:09;19.20;99.90
11840;DHT22;5979;50.800;4.904;2023-09-18T06:26:35;19.20;99.90
11840;DHT22;5979;50.800;4.904;2023-09-18T06:29:01;19.30;99.90
11840;DHT22;5979;50.800;4.904;2023-09-18T06:31:28;19.30;99.90
11840;DHT22;5979;50.800;4.904;2023-09-18T06:33:53;19.30;99.90
11840;DHT22;5979;50.800;4.904;2023-09-18T06:36:19;19.40;99.90
11840;DHT22;5979;50.800;4.904;2023-09-18T06:38:45;19.30;99.90
11840;DHT22;5979;50.800;4.904;2023-09-18T06:41:11;19.30;99.90
11840;DHT22;5979;50.800;4.904;2023-09-18T06:43:36;19.30;99.90
11840;DHT22;5979;50.800;4.904;2023-09-18T06:46:02;19.40;99.90
11840;DHT22;5979;50.800;4.904;2023-09-18T06:48:28;19.40;99.90
11840;DHT22;5979;50.800;4.904;2023-09-18T06:50:58;19.40;99.90
11840;DHT22;5979;50.800;4.904;2023-09-18T06:53:28;19.40;99.90
11840;DHT22;5979;50.800;4.904;2023-09-18T06:55:54;19.40;99.90
11840;DHT22;5979;50.800;4.904;2023-09-18T06:58:20;19.40;99.90
11840;DHT22;5979;50.800;4.904;2023-09-18T07:00:46;19.50;99.90
11840;DHT22;5979;50.800;4.904;2023-09-18T07:03:12;19.50;99.90
11840;DHT22;5979;50.800;4.904;2023-09-18T07:05:40;19.50;99.90
11840;DHT22;5979;50.800;4.904;2023-09-18T07:08:05;19.50;99.90
11840;DHT22;5979;50.800;4.904;2023-09-18T07:10:35;19.50;99.90
11840;DHT22;5979;50.800;4.904;2023-09-18T07:13:01;19.50;99.90
11840;DHT22;5979;50.800;4.904;2023-09-18T07:15:27;19.60;99.90
11840;DHT22;5979;50.800;4.904;2023-09-18T07:17:52;19.60;99.90
11840;DHT22;5979;50.800;4.904;2023-09-18T07:20:18;19.60;99.90
11840;DHT22;5979;50.800;4.904;2023-09-18T07:22:46;19.60;99.90
11840;DHT22;5979;50.800;4.904;2023-09-18T07:25:16;19.60;99.90
11840;DHT22;5979;50.800;4.904;2023-09-18T07:27:42;19.70;99.90
11840;DHT22;5979;50.800;4.904;2023-09-18T07:30:13;19.70;99.90
11840;DHT22;5979;50.800;4.904;2023-09-18T07:32:45;19.80;99.90
11840;DHT22;5979;50.800;4.904;2023-09-18T07:35:11;19.80;99.90
11840;DHT22;5979;50.800;4.904;2023-09-18T07:37:38;19.90;99.90
11840;DHT22;5979;50.800;4.904;2023-09-18T07:40:07;19.90;99.90
11840;DHT22;5979;50.800;4.904;2023-09-18T07:42:33;20.00;99.90
11840;DHT22;5979;50.800;4.904;2023-09-18T07:45:03;20.10;99.90
11840;DHT22;5979;50.800;4.904;2023-09-18T07:47:28;20.10;99.90
11840;DHT22;5979;50.800;4.904;2023-09-18T07:49:57;20.20;99.90
11840;DHT22;5979;50.800;4.904;2023-09-18T07:52:22;20.30;99.90
11840;DHT22;5979;50.800;4.904;2023-09-18T07:54:48;20.40;99.90
11840;DHT22;5979;50.800;4.904;2023-09-18T07:57:15;20.40;99.90
11840;DHT22;5979;50.800;4.904;2023-09-18T07:59:41;20.50;99.90
11840;DHT22;5979;50.800;4.904;2023-09-18T08:02:08;20.50;99.90
11840;DHT22;5979;50.800;4.904;2023-09-18T08:04:35;20.70;99.90
11840;DHT22;5979;50.800;4.904;2023-09-18T08:07:00;20.90;99.90
11840;DHT22;5979;50.800;4.904;2023-09-18T08:09:26;21.10;99.90
11840;DHT22;5979;50.800;4.904;2023-09-18T08:11:55;21.20;99.90
11840;DHT22;5979;50.800;4.904;2023-09-18T08:14:22;21.40;99.90
11840;DHT22;5979;50.800;4.904;2023-09-18T08:16:47;21.60;99.90
11840;DHT22;5979;50.800;4.904;2023-09-18T08:19:16;21.80;99.90
11840;DHT22;5979;50.800;4.904;2023-09-18T08:21:42;22.00;99.90
11840;DHT22;5979;50.800;4.904;2023-09-18T08:24:08;22.10;99.90
11840;DHT22;5979;50.800;4.904;2023-09-18T08:26:33;22.20;99.90
11840;DHT22;5979;50.800;4.904;2023-09-18T08:28:59;22.40;99.90
11840;DHT22;5979;50.800;4.904;2023-09-18T08:31:25;22.40;99.90
11840;DHT22;5979;50.800;4.904;2023-09-18T08:33:53;22.50;99.90
11840;DHT22;5979;50.800;4.904;2023-09-18T08:36:18;22.60;99.90
11840;DHT22;5979;50.800;4.904;2023-09-18T08:38:44;22.70;99.90
11840;DHT22;5979;50.800;4.904;2023-09-18T08:41:12;22.80;99.90
11840;DHT22;5979;50.800;4.904;2023-09-18T08:43:41;23.00;99.90
11840;DHT22;5979;50.800;4.904;2023-09-18T08:46:08;23.10;99.90
11840;DHT22;5979;50.800;4.904;2023-09-18T08:48:34;23.10;99.90
11840;DHT22;5979;50.800;4.904;2023-09-18T08:51:05;23.10;99.90
11840;DHT22;5979;50.800;4.904;2023-09-18T08:53:32;23.10;99.90
11840;DHT22;5979;50.800;4.904;2023-09-18T08:56:02;23.20;99.90
11840;DHT22;5979;50.800;4.904;2023-09-18T08:58:34;23.20;99.90
11840;DHT22;5979;50.800;4.904;2023-09-18T09:01:03;23.20;99.90
11840;DHT22;5979;50.800;4.904;2023-09-18T09:03:31;23.20;99.90
11840;DHT22;5979;50.800;4.904;2023-09-18T09:05:59;23.30;99.90
11840;DHT22;5979;50.800;4.904;2023-09-18T09:08:28;23.40;99.90
11840;DHT22;5979;50.800;4.904;2023-09-18T09:10:54;23.50;99.90
11840;DHT22;5979;50.800;4.904;2023-09-18T09:13:19;23.60;99.90
11840;DHT22;5979;50.800;4.904;2023-09-18T09:15:55;23.60;99.90
11840;DHT22;5979;50.800;4.904;2023-09-18T09:18:25;23.60;99.90
11840;DHT22;5979;50.800;4.904;2023-09-18T09:21:02;23.80;99.90
11840;DHT22;5979;50.800;4.904;2023-09-18T09:23:45;24.00;99.90
11840;DHT22;5979;50.800;4.904;2023-09-18T09:26:14;24.00;99.90
11840;DHT22;5979;50.800;4.904;2023-09-18T09:28:40;24.00;99.90
11840;DHT22;5979;50.800;4.904;2023-09-18T09:31:08;24.00;99.90
11840;DHT22;5979;50.800;4.904;2023-09-18T09:33:34;24.20;99.90
11840;DHT22;5979;50.800;4.904;2023-09-18T09:36:00;24.10;99.90
11840;DHT22;5979;50.800;4.904;2023-09-18T09:38:31;24.00;99.90
11840;DHT22;5979;50.800;4.904;2023-09-18T09:40:58;24.00;99.90
11840;DHT22;5979;50.800;4.904;2023-09-18T09:43:28;23.80;99.90
11840;DHT22;5979;50.800;4.904;2023-09-18T09:46:00;23.50;99.90
11840;DHT22;5979;50.800;4.904;2023-09-18T09:48:26;23.30;99.90
11840;DHT22;5979;50.800;4.904;2023-09-18T09:50:52;23.30;99.90
11840;DHT22;5979;50.800;4.904;2023-09-18T09:53:45;23.40;99.90
11840;DHT22;5979;50.800;4.904;2023-09-18T09:56:13;23.40;99.90
11840;DHT22;5979;50.800;4.904;2023-09-18T09:58:39;23.50;99.90
11840;DHT22;5979;50.800;4.904;2023-09-18T10:01:11;23.50;99.90
11840;DHT22;5979;50.800;4.904;2023-09-18T10:03:41;23.80;99.90
11840;DHT22;5979;50.800;4.904;2023-09-18T10:06:09;24.00;99.90
11840;DHT22;5979;50.800;4.904;2023-09-18T10:08:38;24.30;99.90
11840;DHT22;5979;50.800;4.904;2023-09-18T10:11:09;24.50;99.90
11840;DHT22;5979;50.800;4.904;2023-09-18T10:13:47;24.80;99.90
11840;DHT22;5979;50.800;4.904;2023-09-18T10:16:17;24.90;99.90
11840;DHT22;5979;50.800;4.904;2023-09-18T10:26:23;24.20;99.90
11840;DHT22;5979;50.800;4.904;2023-09-18T10:28:56;24.10;99.90
11840;DHT22;5979;50.800;4.904;2023-09-18T10:31:28;23.90;99.90
11840;DHT22;5979;50.800;4.904;2023-09-18T10:33:56;23.70;99.90
11840;DHT22;5979;50.800;4.904;2023-09-18T10:36:23;23.60;99.90
11840;DHT22;5979;50.800;4.904;2023-09-18T10:38:50;23.50;99.90
11840;DHT22;5979;50.800;4.904;2023-09-18T10:41:21;23.40;99.90
11840;DHT22;5979;50.800;4.904;2023-09-18T10:43:47;23.50;99.90
11840;DHT22;5979;50.800;4.904;2023-09-18T10:46:14;23.60;99.90
11840;DHT22;5979;50.800;4.904;2023-09-18T10:48:43;23.80;99.90
11840;DHT22;5979;50.800;4.904;2023-09-18T10:51:12;24.00;99.90
11840;DHT22;5979;50.800;4.904;2023-09-18T10:53:39;24.00;99.90
11840;DHT22;5979;50.800;4.904;2023-09-18T10:56:05;24.20;99.90
11840;DHT22;5979;50.800;4.904;2023-09-18T10:58:32;24.30;99.90
11840;DHT22;5979;50.800;4.904;2023-09-18T11:01:02;24.60;99.90
11840;DHT22;5979;50.800;4.904;2023-09-18T11:03:33;24.80;99.90
11840;DHT22;5979;50.800;4.904;2023-09-18T11:06:17;24.90;99.90
11840;DHT22;5979;50.800;4.904;2023-09-18T11:08:48;24.80;99.90
11840;DHT22;5979;50.800;4.904;2023-09-18T11:11:18;24.70;99.90
11840;DHT22;5979;50.800;4.904;2023-09-18T11:13:47;24.70;99.90
11840;DHT22;5979;50.800;4.904;2023-09-18T11:21:29;24.70;99.90
11840;DHT22;5979;50.800;4.904;2023-09-18T11:24:00;24.70;99.90
11840;DHT22;5979;50.800;4.904;2023-09-18T11:26:31;24.80;99.90
11840;DHT22;5979;50.800;4.904;2023-09-18T11:29:05;25.00;99.90
11840;DHT22;5979;50.800;4.904;2023-09-18T11:32:00;25.10;99.90
11840;DHT22;5979;50.800;4.904;2023-09-18T11:34:30;25.10;99.90
11840;DHT22;5979;50.800;4.904;2023-09-18T11:37:01;25.00;99.90
11840;DHT22;5979;50.800;4.904;2023-09-18T11:39:39;25.00;99.90
11840;DHT22;5979;50.800;4.904;2023-09-18T11:42:10;25.00;99.90
11840;DHT22;5979;50.800;4.904;2023-09-18T11:44:37;24.90;99.90
11840;DHT22;5979;50.800;4.904;2023-09-18T11:47:11;24.90;99.90
11840;DHT22;5979;50.800;4.904;2023-09-18T11:49:56;24.80;99.90
11840;DHT22;5979;50.800;4.904;2023-09-18T11:52:28;24.70;99.90
11840;DHT22;5979;50.800;4.904;2023-09-18T11:54:56;24.70;99.90
11840;DHT22;5979;50.800;4.904;2023-09-18T11:57:22;24.80;99.90
11840;DHT22;5979;50.800;4.904;2023-09-18T11:59:48;25.00;99.90
11840;DHT22;5979;50.800;4.904;2023-09-18T12:02:26;25.00;99.90
11840;DHT22;5979;50.800;4.904;2023-09-18T12:04:54;24.90;99.90
11840;DHT22;5979;50.800;4.904;2023-09-18T12:07:20;24.70;99.90
11840;DHT22;5979;50.800;4.904;2023-09-18T12:09:46;24.90;99.90
11840;DHT22;5979;50.800;4.904;2023-09-18T12:12:12;25.00;99.90
11840;DHT22;5979;50.800;4.904;2023-09-18T12:14:41;24.90;99.90
11840;DHT22;5979;50.800;4.904;2023-09-18T12:17:14;25.10;99.90
11840;DHT22;5979;50.800;4.904;2023-09-18T12:19:53;25.10;99.90
11840;DHT22;5979;50.800;4.904;2023-09-18T12:22:29;25.10;99.90
11840;DHT22;5979;50.800;4.904;2023-09-18T12:25:11;24.90;99.90
11840;DHT22;5979;50.800;4.904;2023-09-18T12:27:37;25.00;99.90
11840;DHT22;5979;50.800;4.904;2023-09-18T12:30:04;25.10;99.90
11840;DHT22;5979;50.800;4.904;2023-09-18T12:32:30;24.90;99.90
11840;DHT22;5979;50.800;4.904;2023-09-18T12:34:58;25.00;99.90
11840;DHT22;5979;50.800;4.904;2023-09-18T12:37:24;24.90;99.90
11840;DHT22;5979;50.800;4.904;2023-09-18T12:39:50;24.90;99.90
11840;DHT22;5979;50.800;4.904;2023-09-18T12:42:20;24.90;99.90
11840;DHT22;5979;50.800;4.904;2023-09-18T12:44:47;24.90;99.90
11840;DHT22;5979;50.800;4.904;2023-09-18T12:47:14;24.90;99.90
11840;DHT22;5979;50.800;4.904;2023-09-18T12:49:40;24.90;99.90
11840;DHT22;5979;50.800;4.904;2023-09-18T12:52:06;24.90;99.90
11840;DHT22;5979;50.800;4.904;2023-09-18T12:54:45;24.80;99.90
11840;DHT22;5979;50.800;4.904;2023-09-18T12:57:17;24.80;99.90
11840;DHT22;5979;50.800;4.904;2023-09-18T12:59:43;24.80;99.90
11840;DHT22;5979;50.800;4.904;2023-09-18T13:02:13;24.80;99.90
11840;DHT22;5979;50.800;4.904;2023-09-18T13:04:39;24.80;99.90
11840;DHT22;5979;50.800;4.904;2023-09-18T13:07:10;24.80;99.90
11840;DHT22;5979;50.800;4.904;2023-09-18T13:09:36;24.90;99.90
11840;DHT22;5979;50.800;4.904;2023-09-18T13:12:04;24.90;99.90
11840;DHT22;5979;50.800;4.904;2023-09-18T13:14:30;24.80;99.90
11840;DHT22;5979;50.800;4.904;2023-09-18T13:17:02;24.80;99.90
11840;DHT22;5979;50.800;4.904;2023-09-18T13:19:30;24.80;99.90
11840;DHT22;5979;50.800;4.904;2023-09-18T13:21:56;24.80;99.90
11840;DHT22;5979;50.800;4.904;2023-09-18T13:24:29;24.80;99.90
11840;DHT22;5979;50.800;4.904;2023-09-18T13:26:56;24.90;99.90
11840;DHT22;5979;50.800;4.904;2023-09-18T13:29:26;25.00;99.90
11840;DHT22;5979;50.800;4.904;2023-09-18T13:31:51;24.90;99.90
11840;DHT22;5979;50.800;4.904;2023-09-18T13:34:17;24.90;99.90
11840;DHT22;5979;50.800;4.904;2023-09-18T13:36:44;24.80;99.90
11840;DHT22;5979;50.800;4.904;2023-09-18T13:39:11;24.80;99.90
11840;DHT22;5979;50.800;4.904;2023-09-18T13:41:37;24.90;99.90
11840;DHT22;5979;50.800;4.904;2023-09-18T13:44:03;25.00;99.90
11840;DHT22;5979;50.800;4.904;2023-09-18T13:46:29;25.00;99.90
11840;DHT22;5979;50.800;4.904;2023-09-18T13:48:55;25.10;99.90
11840;DHT22;5979;50.800;4.904;2023-09-18T13:51:20;25.10;99.90
11840;DHT22;5979;50.800;4.904;2023-09-18T13:53:46;25.10;99.90
11840;DHT22;5979;50.800;4.904;2023-09-18T13:56:13;25.10;99.90
11840;DHT22;5979;50.800;4.904;2023-09-18T13:58:39;25.10;99.90
11840;DHT22;5979;50.800;4.904;2023-09-18T14:01:06;25.10;99.90
11840;DHT22;5979;50.800;4.904;2023-09-18T14:03:33;25.10;99.90
11840;DHT22;5979;50.800;4.904;2023-09-18T14:05:59;25.10;99.90
11840;DHT22;5979;50.800;4.904;2023-09-18T14:08:25;25.00;99.90
11840;DHT22;5979;50.800;4.904;2023-09-18T14:10:50;24.90;99.90
11840;DHT22;5979;50.800;4.904;2023-09-18T14:13:16;24.90;99.90
11840;DHT22;5979;50.800;4.904;2023-09-18T14:15:42;24.80;99.90
11840;DHT22;5979;50.800;4.904;2023-09-18T14:18:09;24.60;99.90
11840;DHT22;5979;50.800;4.904;2023-09-18T14:20:35;24.50;99.90
11840;DHT22;5979;50.800;4.904;2023-09-18T14:23:01;24.50;99.90
11840;DHT22;5979;50.800;4.904;2023-09-18T14:25:28;24.40;99.90
11840;DHT22;5979;50.800;4.904;2023-09-18T14:27:54;24.40;99.90
11840;DHT22;5979;50.800;4.904;2023-09-18T14:30:20;24.30;99.90
11840;DHT22;5979;50.800;4.904;2023-09-18T14:32:45;24.30;99.90
11840;DHT22;5979;50.800;4.904;2023-09-18T14:35:11;24.30;99.90
11840;DHT22;5979;50.800;4.904;2023-09-18T14:37:39;24.30;99.90
11840;DHT22;5979;50.800;4.904;2023-09-18T14:40:05;24.40;99.90
11840;DHT22;5979;50.800;4.904;2023-09-18T14:42:33;24.50;99.90
11840;DHT22;5979;50.800;4.904;2023-09-18T14:44:58;24.50;99.90
11840;DHT22;5979;50.800;4.904;2023-09-18T14:47:26;24.50;99.90
11840;DHT22;5979;50.800;4.904;2023-09-18T14:49:52;24.40;99.90
11840;DHT22;5979;50.800;4.904;2023-09-18T14:52:18;24.40;99.90
11840;DHT22;5979;50.800;4.904;2023-09-18T14:54:44;24.30;99.90
11840;DHT22;5979;50.800;4.904;2023-09-18T14:57:09;24.30;99.90
11840;DHT22;5979;50.800;4.904;2023-09-18T14:59:35;24.50;99.90
11840;DHT22;5979;50.800;4.904;2023-09-18T15:02:01;24.50;99.90
11840;DHT22;5979;50.800;4.904;2023-09-18T15:04:28;24.50;99.90
11840;DHT22;5979;50.800;4.904;2023-09-18T15:06:54;24.60;99.90
11840;DHT22;5979;50.800;4.904;2023-09-18T15:09:19;24.60;99.90
11840;DHT22;5979;50.800;4.904;2023-09-18T15:11:45;24.50;99.90
11840;DHT22;5979;50.800;4.904;2023-09-18T15:14:11;24.60;99.90
11840;DHT22;5979;50.800;4.904;2023-09-18T15:16:37;24.60;99.90
11840;DHT22;5979;50.800;4.904;2023-09-18T15:19:02;24.50;99.90
11840;DHT22;5979;50.800;4.904;2023-09-18T15:21:31;24.60;99.90
11840;DHT22;5979;50.800;4.904;2023-09-18T15:23:57;24.50;99.90
11840;DHT22;5979;50.800;4.904;2023-09-18T15:26:23;24.60;99.90
11840;DHT22;5979;50.800;4.904;2023-09-18T15:28:49;24.60;99.90
11840;DHT22;5979;50.800;4.904;2023-09-18T15:31:15;24.50;99.90
11840;DHT22;5979;50.800;4.904;2023-09-18T15:33:40;24.50;99.90
11840;DHT22;5979;50.800;4.904;2023-09-18T15:36:07;24.40;99.90
11840;DHT22;5979;50.800;4.904;2023-09-18T15:38:33;24.20;99.90
11840;DHT22;5979;50.800;4.904;2023-09-18T15:40:59;23.90;99.90
11840;DHT22;5979;50.800;4.904;2023-09-18T15:43:27;23.80;99.90
11840;DHT22;5979;50.800;4.904;2023-09-18T15:45:54;23.70;99.90
11840;DHT22;5979;50.800;4.904;2023-09-18T15:48:22;23.50;99.90
11840;DHT22;5979;50.800;4.904;2023-09-18T15:50:48;23.40;99.90
11840;DHT22;5979;50.800;4.904;2023-09-18T15:53:14;23.30;99.90
11840;DHT22;5979;50.800;4.904;2023-09-18T15:55:40;23.20;99.90
11840;DHT22;5979;50.800;4.904;2023-09-18T15:58:05;23.20;99.90
11840;DHT22;5979;50.800;4.904;2023-09-18T16:00:32;23.10;99.90
11840;DHT22;5979;50.800;4.904;2023-09-18T16:02:58;23.00;99.90